Time;durP1;ratioP1;P1;durP2;ratioP2;P2;SDS_P1;SDS_P2;PMS_P1;PMS_P2;Temp;Humidity;BMP_temperature;BMP_pressure;BME280_temperature;BME280_humidity;BME280_pressure;Samples;Min_cycle;Max_cycle;Signal;HPM_P1;HPM_P2
2023/05/08 00:00:17;;;;;;;6.37;5.17;;;13.20;99.90;;;;;;2048184;28;20191;-69
2023/05/08 00:01:18;;;;;;;8.07;6.47;;;13.30;99.90;;;;;;2056087;28;20638;-69
2023/05/08 00:02:19;;;;;;;6.70;5.57;;;13.00;99.90;;;;;;2055546;28;20224;-69
2023/05/08 00:03:19;;;;;;;6.17;5.47;;;13.30;99.90;;;;;;2040939;28;20662;-69
2023/05/08 00:04:20;;;;;;;5.30;4.80;;;13.30;99.90;;;;;;2046758;29;20258;-70
2023/05/08 00:05:21;;;;;;;7.10;4.77;;;13.10;99.90;;;;;;2051853;28;20723;-70
2023/05/08 00:06:22;;;;;;;8.37;5.80;;;13.10;99.90;;;;;;2045996;28;20276;-70
2023/05/08 00:07:22;;;;;;;7.83;5.87;;;13.10;99.90;;;;;;2037672;29;20368;-70
2023/05/08 00:08:24;;;;;;;6.47;5.20;;;13.10;99.90;;;;;;2044863;28;20232;-70
2023/05/08 00:09:24;;;;;;;6.35;5.25;;;13.10;99.90;;;;;;2047890;28;20227;-70
2023/05/08 00:10:29;;;;;;;7.80;5.47;;;13.10;99.90;;;;;;2047715;28;20223;-70
2023/05/08 00:11:29;;;;;;;9.98;5.72;;;13.10;99.90;;;;;;2048054;28;20587;-70
2023/05/08 00:12:30;;;;;;;9.07;6.33;;;13.10;99.90;;;;;;2048959;28;20246;-70
2023/05/08 00:13:31;;;;;;;6.10;5.13;;;13.20;99.90;;;;;;2048760;28;20283;-70
2023/05/08 00:14:31;;;;;;;6.13;5.03;;;13.20;99.90;;;;;;2048878;28;20266;-70
2023/05/08 00:15:34;;;;;;;5.75;4.68;;;13.20;99.90;;;;;;2048616;28;21036;-70
2023/05/08 00:16:37;;;;;;;6.90;5.00;;;13.30;99.90;;;;;;2048720;28;20239;-72
2023/05/08 00:17:38;;;;;;;6.60;5.55;;;13.30;99.90;;;;;;2048224;28;20219;-70
2023/05/08 00:18:38;;;;;;;5.97;5.00;;;13.20;99.90;;;;;;2045199;28;20702;-70
2023/05/08 00:19:39;;;;;;;5.60;4.77;;;13.20;99.90;;;;;;2034532;29;20231;-70
2023/05/08 00:20:40;;;;;;;9.23;5.97;;;13.20;99.90;;;;;;2048009;28;20212;-69
2023/05/08 00:21:41;;;;;;;5.47;4.67;;;13.30;99.90;;;;;;2052930;28;20238;-68
2023/05/08 00:22:42;;;;;;;5.27;4.30;;;13.30;99.90;;;;;;2048171;28;20314;-68
2023/05/08 00:23:43;;;;;;;5.63;4.77;;;13.30;99.90;;;;;;2039635;29;20251;-68
2023/05/08 00:24:43;;;;;;;7.40;5.20;;;13.30;99.90;;;;;;2032381;29;20700;-68
2023/05/08 00:25:45;;;;;;;5.40;4.60;;;13.20;99.90;;;;;;2047817;28;20219;-71
2023/05/08 00:26:46;;;;;;;5.82;4.32;;;13.20;99.90;;;;;;2048522;28;20303;-70
2023/05/08 00:27:47;;;;;;;5.63;4.60;;;13.20;99.90;;;;;;2048077;28;20219;-70
2023/05/08 00:28:48;;;;;;;6.87;4.87;;;13.20;99.90;;;;;;2039974;29;20239;-71
2023/05/08 00:29:49;;;;;;;6.07;4.67;;;13.20;99.90;;;;;;2039478;29;20216;-71
2023/05/08 00:30:49;;;;;;;5.03;4.53;;;13.10;99.90;;;;;;2046556;28;20227;-68
2023/05/08 00:31:50;;;;;;;4.87;4.33;;;13.10;99.90;;;;;;2048712;28;20255;-68
2023/05/08 00:32:52;;;;;;;6.33;4.80;;;13.00;99.90;;;;;;2052262;28;20319;-71
2023/05/08 00:33:53;;;;;;;6.05;4.65;;;13.00;99.90;;;;;;2052014;28;20279;-68
2023/05/08 00:34:54;;;;;;;5.83;4.90;;;12.90;99.90;;;;;;2052698;28;20243;-68
2023/05/08 00:36:00;;;;;;;5.87;4.40;;;12.90;99.90;;;;;;2055568;28;20257;-68
2023/05/08 00:37:02;;;;;;;5.57;4.70;;;12.90;99.90;;;;;;2051583;28;20223;-69
2023/05/08 00:38:03;;;;;;;5.88;5.07;;;12.90;99.90;;;;;;2037133;29;20639;-69
2023/05/08 00:39:04;;;;;;;4.80;4.22;;;12.90;99.90;;;;;;2038569;28;20664;-71
2023/05/08 00:40:07;;;;;;;4.63;4.03;;;13.00;99.90;;;;;;2040354;29;20203;-71
2023/05/08 00:41:09;;;;;;;5.68;4.75;;;13.00;99.90;;;;;;2031223;29;20193;-71
2023/05/08 00:42:09;;;;;;;5.32;4.45;;;13.00;99.90;;;;;;2036926;29;20208;-70
2023/05/08 00:43:10;;;;;;;6.00;4.50;;;13.10;99.90;;;;;;2056868;28;20195;-68
2023/05/08 00:44:11;;;;;;;5.03;4.53;;;13.10;99.90;;;;;;2062735;28;20237;-70
2023/05/08 00:45:11;;;;;;;9.23;4.70;;;13.10;99.90;;;;;;2056145;28;20638;-68
2023/05/08 00:46:13;;;;;;;5.53;4.50;;;13.20;99.90;;;;;;2046687;29;20196;-69
2023/05/08 00:47:13;;;;;;;5.18;4.47;;;13.10;99.90;;;;;;2043091;29;20204;-70
2023/05/08 00:48:14;;;;;;;5.10;4.50;;;13.10;99.90;;;;;;2051268;28;20195;-70
2023/05/08 00:49:15;;;;;;;5.53;4.43;;;13.10;99.90;;;;;;2053210;28;20687;-71
2023/05/08 00:50:17;;;;;;;5.10;4.40;;;13.10;99.90;;;;;;2047385;28;20295;-68
2023/05/08 00:51:18;;;;;;;6.63;4.78;;;13.00;99.90;;;;;;2039744;29;20192;-69
2023/05/08 00:52:19;;;;;;;7.20;5.63;;;13.20;99.90;;;;;;2037397;29;20250;-70
2023/05/08 00:53:22;;;;;;;5.07;4.57;;;13.00;99.90;;;;;;2038298;29;20510;-69
2023/05/08 00:54:23;;;;;;;6.03;4.63;;;13.00;99.90;;;;;;2047900;28;20235;-69
2023/05/08 00:55:24;;;;;;;7.83;4.83;;;13.00;99.90;;;;;;2047372;28;20311;-69
2023/05/08 00:56:27;;;;;;;7.10;4.70;;;13.00;99.90;;;;;;2050969;28;20257;-69
2023/05/08 00:57:31;;;;;;;5.38;4.13;;;12.90;99.90;;;;;;2056148;28;20544;-69
2023/05/08 00:58:32;;;;;;;5.35;4.28;;;13.00;99.90;;;;;;2055351;28;20934;-69
2023/05/08 00:59:36;;;;;;;6.90;4.67;;;13.00;99.90;;;;;;2041907;28;20255;-69
2023/05/08 01:00:40;;;;;;;4.78;3.63;;;13.00;99.90;;;;;;2047699;29;20224;-69
2023/05/08 01:01:42;;;;;;;5.53;4.75;;;13.00;99.90;;;;;;2047564;28;20270;-69
2023/05/08 01:02:44;;;;;;;7.97;3.75;;;12.90;99.90;;;;;;2047417;28;20242;-69
2023/05/08 01:03:45;;;;;;;5.88;4.68;;;12.90;99.90;;;;;;2039349;29;20319;-69
2023/05/08 01:04:47;;;;;;;7.30;4.50;;;12.80;99.90;;;;;;2054048;28;20314;-69
2023/05/08 01:05:48;;;;;;;7.03;4.35;;;12.80;99.90;;;;;;2047477;28;20219;-69
2023/05/08 01:06:49;;;;;;;5.30;4.28;;;12.70;99.90;;;;;;2036898;29;20722;-70
2023/05/08 01:07:50;;;;;;;5.47;4.20;;;12.80;99.90;;;;;;2046956;28;20219;-69
2023/05/08 01:08:51;;;;;;;5.27;4.30;;;12.80;99.90;;;;;;2063478;28;20292;-69
2023/05/08 01:09:51;;;;;;;5.00;3.93;;;12.70;99.90;;;;;;2048058;28;20223;-69
2023/05/08 01:11:22;;;;;;;5.10;4.30;;;12.80;99.90;;;;;;2052201;28;20681;-69
2023/05/08 01:12:43;;;;;;;5.70;4.18;;;13.00;99.90;;;;;;2049697;28;20252;-69
2023/05/08 01:14:15;;;;;;;4.97;4.50;;;12.90;99.90;;;;;;2054665;28;20218;-69
2023/05/08 01:15:29;;;;;;;5.80;4.72;;;12.90;99.90;;;;;;2051348;28;20314;-70
2023/05/08 01:16:50;;;;;;;7.20;4.63;;;13.00;99.90;;;;;;2055822;28;20230;-69
2023/05/08 01:18:14;;;;;;;6.53;5.20;;;12.90;99.90;;;;;;2056058;28;20226;-69
2023/05/08 01:20:05;;;;;;;6.40;5.22;;;13.00;99.90;;;;;;2053565;28;20237;-70
2023/05/08 01:21:24;;;;;;;5.45;4.50;;;13.00;99.90;;;;;;2052374;28;20226;-70
2023/05/08 01:22:54;;;;;;;5.35;4.10;;;13.00;99.90;;;;;;2050474;28;20242;-70
2023/05/08 01:24:39;;;;;;;7.22;4.43;;;13.10;99.90;;;;;;2047159;29;20281;-70
2023/05/08 01:26:13;;;;;;;5.72;4.38;;;13.10;99.90;;;;;;2045026;28;20651;-69
2023/05/08 01:27:53;;;;;;;7.35;4.53;;;13.10;99.90;;;;;;2050919;28;20226;-69
2023/05/08 01:29:25;;;;;;;4.97;4.20;;;13.10;99.90;;;;;;2054246;28;20222;-70
2023/05/08 01:31:24;;;;;;;8.65;4.50;;;13.10;99.90;;;;;;2038587;28;20631;-69
2023/05/08 01:32:41;;;;;;;5.75;3.80;;;13.00;99.90;;;;;;2048281;28;20298;-69
2023/05/08 01:33:57;;;;;;;8.18;4.60;;;13.00;99.90;;;;;;2051253;28;20229;-69
2023/05/08 01:35:30;;;;;;;6.07;4.30;;;13.00;99.90;;;;;;2059991;28;20249;-69
2023/05/08 01:36:42;;;;;;;5.95;4.30;;;13.00;99.90;;;;;;2048881;28;20236;-69
2023/05/08 01:38:16;;;;;;;4.95;4.30;;;13.00;99.90;;;;;;2055129;28;20226;-71
2023/05/08 01:39:26;;;;;;;4.47;3.58;;;13.00;99.90;;;;;;2051872;28;20226;-69
2023/05/08 01:40:45;;;;;;;5.07;4.47;;;13.00;99.90;;;;;;2055538;28;20227;-71
2023/05/08 01:41:59;;;;;;;4.72;3.92;;;12.90;99.90;;;;;;2055157;28;20241;-70
2023/05/08 01:43:25;;;;;;;4.50;3.67;;;13.10;99.90;;;;;;2052696;28;20218;-71
2023/05/08 01:44:40;;;;;;;4.65;3.60;;;12.80;99.90;;;;;;2054654;28;20230;-69
2023/05/08 01:45:45;;;;;;;4.82;3.95;;;12.90;99.90;;;;;;2034781;29;20221;-70
2023/05/08 01:46:51;;;;;;;7.07;4.40;;;12.90;99.90;;;;;;2030706;29;20303;-69
2023/05/08 01:48:10;;;;;;;6.30;3.88;;;13.00;99.90;;;;;;2039160;29;20243;-70
2023/05/08 01:49:19;;;;;;;5.90;3.90;;;13.00;99.90;;;;;;2040822;28;20828;-68
2023/05/08 01:50:30;;;;;;;6.95;4.80;;;13.00;99.90;;;;;;2032666;29;20236;-69
2023/05/08 01:51:42;;;;;;;6.13;4.50;;;13.00;99.90;;;;;;2033011;29;20228;-69
2023/05/08 01:52:49;;;;;;;5.38;4.72;;;12.90;99.90;;;;;;2040304;29;20228;-71
2023/05/08 01:53:59;;;;;;;6.40;4.60;;;12.90;99.90;;;;;;2039562;29;20227;-69
2023/05/08 01:55:09;;;;;;;7.72;4.35;;;12.60;99.90;;;;;;2044810;28;20255;-72
2023/05/08 01:56:17;;;;;;;5.93;4.88;;;12.90;99.90;;;;;;2040696;29;20188;-70
2023/05/08 01:57:20;;;;;;;5.95;4.88;;;12.80;99.90;;;;;;2050930;28;20183;-69
2023/05/08 01:58:23;;;;;;;5.80;4.88;;;12.70;99.90;;;;;;2046589;29;20263;-70
2023/05/08 01:59:27;;;;;;;5.82;4.93;;;12.70;99.90;;;;;;2036670;28;20235;-69
2023/05/08 02:00:28;;;;;;;5.07;4.22;;;12.70;99.90;;;;;;2037648;29;20232;-70
2023/05/08 02:01:32;;;;;;;6.50;4.87;;;12.80;99.90;;;;;;2031061;29;20236;-69
2023/05/08 02:02:35;;;;;;;5.65;4.72;;;12.80;99.90;;;;;;2039754;29;20231;-69
2023/05/08 02:03:39;;;;;;;7.57;5.45;;;12.90;99.90;;;;;;2042212;28;20306;-69
2023/05/08 02:04:42;;;;;;;5.40;4.90;;;12.90;99.90;;;;;;2053763;28;20218;-69
2023/05/08 02:05:44;;;;;;;6.85;4.78;;;12.90;99.90;;;;;;2046885;28;20473;-69
2023/05/08 02:06:45;;;;;;;6.78;4.85;;;13.00;99.90;;;;;;2045778;28;20269;-70
2023/05/08 02:07:48;;;;;;;4.83;4.33;;;13.00;99.90;;;;;;2047295;28;20239;-70
2023/05/08 02:08:50;;;;;;;6.30;4.10;;;13.00;99.90;;;;;;2055424;28;20281;-69
2023/05/08 02:09:53;;;;;;;4.63;4.10;;;13.00;99.90;;;;;;2054959;28;20716;-69
2023/05/08 02:10:56;;;;;;;4.22;3.80;;;13.00;99.90;;;;;;2047332;28;20231;-69
2023/05/08 02:11:59;;;;;;;5.07;3.50;;;12.90;99.90;;;;;;2038384;29;20224;-70
2023/05/08 02:13:01;;;;;;;4.70;3.90;;;13.00;99.90;;;;;;2035091;29;20235;-69
2023/05/08 02:14:03;;;;;;;5.65;4.00;;;13.00;99.90;;;;;;2035945;29;20189;-70
2023/05/08 02:15:07;;;;;;;7.53;3.92;;;13.00;99.90;;;;;;2046867;28;20191;-69
2023/05/08 02:16:10;;;;;;;4.28;3.50;;;13.00;99.90;;;;;;2046975;28;20195;-70
2023/05/08 02:17:15;;;;;;;4.60;3.83;;;13.00;99.90;;;;;;2041109;28;20193;-68
2023/05/08 02:18:42;;;;;;;5.85;3.83;;;13.00;99.90;;;;;;2040677;28;20314;-69
2023/05/08 02:19:43;;;;;;;5.80;4.20;;;12.90;99.90;;;;;;2050713;28;20270;-69
2023/05/08 02:20:44;;;;;;;5.60;3.95;;;12.80;99.90;;;;;;2055239;28;20227;-69
2023/05/08 02:21:46;;;;;;;4.65;3.60;;;12.90;99.90;;;;;;2048320;28;20320;-69
2023/05/08 02:22:50;;;;;;;4.57;4.03;;;12.90;99.90;;;;;;2039459;29;20251;-70
2023/05/08 02:23:53;;;;;;;4.32;3.92;;;13.00;99.90;;;;;;2047490;28;20720;-71
2023/05/08 02:24:55;;;;;;;6.07;4.68;;;12.90;99.90;;;;;;2048645;28;20231;-69
2023/05/08 02:25:56;;;;;;;4.45;3.72;;;12.90;99.90;;;;;;2041075;29;20220;-69
2023/05/08 02:26:58;;;;;;;4.53;3.70;;;12.90;99.90;;;;;;2040096;29;20243;-70
2023/05/08 02:28:02;;;;;;;5.82;4.25;;;12.90;99.90;;;;;;2039750;28;20254;-71
2023/05/08 02:29:03;;;;;;;7.47;4.43;;;12.90;99.90;;;;;;2048089;28;20678;-71
2023/05/08 02:30:05;;;;;;;3.58;3.20;;;12.80;99.90;;;;;;2054546;28;20290;-69
2023/05/08 02:31:08;;;;;;;4.28;3.40;;;12.80;99.90;;;;;;2044570;28;20711;-69
2023/05/08 02:32:10;;;;;;;4.03;3.35;;;12.40;99.90;;;;;;2036794;29;20197;-69
2023/05/08 02:33:13;;;;;;;4.75;3.83;;;12.80;99.90;;;;;;2032779;29;20212;-69
2023/05/08 02:34:16;;;;;;;5.90;3.75;;;12.70;99.90;;;;;;2041091;29;20248;-70
2023/05/08 02:35:19;;;;;;;4.00;3.60;;;12.70;99.90;;;;;;2048152;28;20188;-70
2023/05/08 02:36:22;;;;;;;5.47;4.22;;;12.80;99.90;;;;;;2044942;28;20244;-71
2023/05/08 02:37:25;;;;;;;3.65;3.30;;;12.80;99.90;;;;;;2040699;28;20627;-70
2023/05/08 02:38:26;;;;;;;3.92;3.15;;;12.80;99.90;;;;;;2050788;28;20237;-70
2023/05/08 02:39:30;;;;;;;4.22;3.50;;;12.80;99.90;;;;;;2046512;28;20339;-70
2023/05/08 02:40:32;;;;;;;3.70;3.33;;;12.80;99.90;;;;;;2045869;28;20242;-70
2023/05/08 02:41:35;;;;;;;4.72;3.55;;;12.80;99.90;;;;;;2048659;28;20305;-70
2023/05/08 02:42:36;;;;;;;5.75;4.07;;;12.80;99.90;;;;;;2045474;28;20232;-70
2023/05/08 02:43:37;;;;;;;5.20;4.13;;;12.80;99.90;;;;;;2044663;28;20227;-70
2023/05/08 02:44:38;;;;;;;5.47;3.80;;;12.70;99.90;;;;;;2057696;28;20222;-70
2023/05/08 02:45:47;;;;;;;4.53;3.90;;;12.80;99.90;;;;;;2056481;28;20655;-70
2023/05/08 02:47:09;;;;;;;4.80;3.95;;;12.80;99.90;;;;;;2042902;28;20232;-70
2023/05/08 02:48:25;;;;;;;4.82;3.38;;;12.70;99.90;;;;;;2045249;28;20227;-69
2023/05/08 02:49:38;;;;;;;3.92;3.35;;;12.70;99.90;;;;;;2040264;29;20805;-70
2023/05/08 02:51:26;;;;;;;9.65;4.25;;;12.70;99.90;;;;;;2045310;28;20236;-70
2023/05/08 02:52:37;;;;;;;7.78;3.80;;;12.70;99.90;;;;;;2012149;29;20237;-72
2023/05/08 02:53:51;;;;;;;4.85;3.78;;;12.70;99.90;;;;;;2038988;29;20274;-70
2023/05/08 02:54:59;;;;;;;5.53;3.90;;;12.80;99.90;;;;;;2039318;29;20307;-70
2023/05/08 02:56:27;;;;;;;5.70;4.68;;;12.70;99.90;;;;;;2054625;28;20807;-71
2023/05/08 02:58:00;;;;;;;3.85;3.45;;;12.70;99.90;;;;;;2043545;28;20668;-70
2023/05/08 02:59:13;;;;;;;4.80;3.80;;;12.40;99.90;;;;;;2037215;28;20224;-71
2023/05/08 03:00:37;;;;;;;5.50;3.90;;;12.60;99.90;;;;;;2033954;28;20197;-70
2023/05/08 03:01:48;;;;;;;3.97;3.58;;;12.60;99.90;;;;;;2038424;29;20220;-70
2023/05/08 03:02:55;;;;;;;5.80;3.58;;;12.60;99.90;;;;;;2040986;29;20224;-70
2023/05/08 03:04:05;;;;;;;6.18;3.83;;;12.60;99.90;;;;;;2039564;29;20235;-70
2023/05/08 03:05:20;;;;;;;4.95;3.75;;;12.60;99.90;;;;;;2044636;28;20226;-70
2023/05/08 03:06:23;;;;;;;4.65;3.78;;;12.60;99.90;;;;;;2038036;29;20748;-70
2023/05/08 03:07:26;;;;;;;3.42;3.13;;;12.60;99.90;;;;;;2047309;28;20227;-70
2023/05/08 03:08:33;;;;;;;5.97;4.40;;;12.60;99.90;;;;;;2048217;28;20784;-70
2023/05/08 03:09:44;;;;;;;7.88;4.47;;;12.70;99.90;;;;;;2050044;28;20223;-70
2023/05/08 03:10:50;;;;;;;17.08;7.13;;;12.70;99.90;;;;;;2046369;28;20220;-70
2023/05/08 03:12:03;;;;;;;147.80;18.88;;;12.70;99.90;;;;;;2038273;29;20240;-70
2023/05/08 03:13:08;;;;;;;25.65;7.45;;;12.60;99.90;;;;;;2040393;28;20232;-70
2023/05/08 03:14:11;;;;;;;15.05;6.13;;;12.60;99.90;;;;;;2045890;28;20226;-70
2023/05/08 03:15:32;;;;;;;16.25;6.85;;;12.50;99.90;;;;;;2043202;28;20199;-69
2023/05/08 03:16:35;;;;;;;8.18;4.13;;;12.40;99.90;;;;;;2047467;28;20220;-71
2023/05/08 03:17:38;;;;;;;13.57;5.45;;;12.50;99.90;;;;;;2047088;29;20279;-70
2023/05/08 03:18:48;;;;;;;14.38;5.70;;;12.40;99.90;;;;;;2052988;28;20336;-70
2023/05/08 03:19:56;;;;;;;29.05;7.07;;;12.40;99.90;;;;;;2041562;29;20727;-70
2023/05/08 03:20:59;;;;;;;28.35;7.00;;;12.30;99.90;;;;;;2033569;29;20232;-70
2023/05/08 03:22:02;;;;;;;37.28;8.15;;;12.40;99.90;;;;;;2040257;28;20307;-72
2023/05/08 03:23:04;;;;;;;27.88;7.60;;;12.40;99.90;;;;;;2056385;28;20199;-70
2023/05/08 03:24:08;;;;;;;25.02;8.13;;;12.50;99.90;;;;;;2055746;28;20195;-70
2023/05/08 03:25:10;;;;;;;18.08;7.05;;;12.50;99.90;;;;;;2040371;29;20184;-71
2023/05/08 03:26:15;;;;;;;10.88;6.25;;;12.60;99.90;;;;;;2048058;28;20180;-69
2023/05/08 03:27:16;;;;;;;30.08;7.78;;;12.80;99.90;;;;;;2056143;28;20175;-70
2023/05/08 03:28:18;;;;;;;37.13;9.27;;;12.60;99.90;;;;;;2045942;29;20184;-70
2023/05/08 03:29:20;;;;;;;20.20;6.18;;;12.60;99.90;;;;;;2042949;28;20263;-70
2023/05/08 03:30:21;;;;;;;31.17;7.10;;;12.50;99.90;;;;;;2048280;28;20796;-70
2023/05/08 03:31:23;;;;;;;44.85;6.80;;;12.60;99.90;;;;;;2047852;28;20239;-68
2023/05/08 03:32:26;;;;;;;28.48;7.15;;;12.50;99.90;;;;;;2048026;28;20239;-70
2023/05/08 03:33:28;;;;;;;50.22;11.30;;;12.50;99.90;;;;;;2056019;28;20650;-70
2023/05/08 03:34:30;;;;;;;34.17;8.98;;;12.60;99.90;;;;;;2063360;28;20662;-70
2023/05/08 03:35:38;;;;;;;99.75;14.48;;;12.50;99.90;;;;;;2056051;28;21443;-70
2023/05/08 03:36:39;;;;;;;50.72;9.23;;;12.50;99.90;;;;;;2048576;28;20227;-70
2023/05/08 03:37:41;;;;;;;101.38;13.88;;;12.50;99.90;;;;;;2044646;28;20761;-71
2023/05/08 03:38:42;;;;;;;32.28;8.63;;;12.60;99.90;;;;;;2048368;28;20219;-71
2023/05/08 03:39:43;;;;;;;104.17;12.53;;;12.60;99.90;;;;;;2032692;29;21176;-70
2023/05/08 03:40:44;;;;;;;75.23;11.23;;;12.60;99.90;;;;;;2040121;29;20474;-70
2023/05/08 03:41:45;;;;;;;64.57;9.33;;;12.60;99.90;;;;;;2047701;28;20881;-70
2023/05/08 03:42:46;;;;;;;79.00;9.70;;;12.70;99.90;;;;;;2048182;28;20331;-71
2023/05/08 03:43:47;;;;;;;88.22;12.70;;;12.80;99.90;;;;;;2047716;28;20299;-71
2023/05/08 03:44:53;;;;;;;95.05;13.60;;;12.70;99.90;;;;;;2041499;28;20227;-70
2023/05/08 03:45:55;;;;;;;57.70;8.48;;;12.70;99.90;;;;;;2048065;28;20733;-70
2023/05/08 03:46:57;;;;;;;70.50;10.65;;;12.70;99.90;;;;;;2046569;28;20339;-71
2023/05/08 03:47:59;;;;;;;51.13;9.18;;;12.80;99.90;;;;;;2048073;28;20235;-70
2023/05/08 03:49:03;;;;;;;41.55;11.10;;;12.70;99.90;;;;;;2022352;29;20220;-72
2023/05/08 03:50:07;;;;;;;72.85;13.50;;;12.30;99.90;;;;;;2032447;29;20259;-70
2023/05/08 03:51:10;;;;;;;82.63;13.80;;;12.60;99.90;;;;;;2047911;28;20191;-70
2023/05/08 03:52:12;;;;;;;24.33;7.68;;;12.60;99.90;;;;;;2045704;28;20192;-70
2023/05/08 03:53:13;;;;;;;28.13;7.93;;;12.50;99.90;;;;;;2043960;28;20215;-70
2023/05/08 03:54:14;;;;;;;30.75;8.02;;;12.60;99.90;;;;;;2043947;28;20204;-70
2023/05/08 03:55:14;;;;;;;24.60;8.30;;;12.50;99.90;;;;;;2054542;28;20191;-70
2023/05/08 03:56:16;;;;;;;37.60;10.70;;;12.50;99.90;;;;;;2058874;28;20648;-70
2023/05/08 03:57:17;;;;;;;31.25;10.10;;;12.50;99.90;;;;;;2055873;28;20195;-70
2023/05/08 03:59:04;;;;;;;12.65;7.07;;;12.50;99.90;;;;;;2045012;28;20196;-70
2023/05/08 04:00:53;;;;;;;22.60;8.23;;;12.60;99.90;;;;;;2054053;28;20218;-70
2023/05/08 04:02:06;;;;;;;6.85;5.20;;;12.60;99.90;;;;;;2046743;28;20299;-70
2023/05/08 04:03:28;;;;;;;7.35;4.75;;;12.50;99.90;;;;;;2054168;28;20214;-70
2023/05/08 04:04:40;;;;;;;6.28;4.85;;;12.50;99.90;;;;;;2050256;28;20235;-69
2023/05/08 04:06:31;;;;;;;6.63;4.78;;;12.50;99.90;;;;;;2051393;28;20214;-70
2023/05/08 04:07:56;;;;;;;5.70;4.50;;;12.50;99.90;;;;;;2054914;28;20236;-70
2023/05/08 04:09:26;;;;;;;5.88;4.47;;;12.50;99.90;;;;;;2054161;28;20223;-70
2023/05/08 04:10:42;;;;;;;7.40;5.47;;;12.50;99.90;;;;;;2047428;28;20233;-70
2023/05/08 04:12:24;;;;;;;9.68;5.38;;;12.50;99.90;;;;;;2049572;28;21000;-70
2023/05/08 04:13:30;;;;;;;14.40;6.20;;;12.50;99.90;;;;;;2024547;28;20744;-70
2023/05/08 04:15:01;;;;;;;11.00;5.50;;;12.50;99.90;;;;;;2046913;28;20288;-70
2023/05/08 04:16:25;;;;;;;6.97;5.05;;;12.60;99.90;;;;;;2043824;28;20227;-71
2023/05/08 04:17:41;;;;;;;7.15;4.72;;;12.60;99.90;;;;;;2051290;28;20236;-70
2023/05/08 04:18:46;;;;;;;4.32;3.60;;;12.60;99.90;;;;;;2044953;28;20337;-69
2023/05/08 04:19:57;;;;;;;4.47;3.60;;;12.60;99.90;;;;;;2040773;29;20231;-70
2023/05/08 04:21:00;;;;;;;4.90;3.85;;;12.50;99.90;;;;;;2041254;29;20782;-70
2023/05/08 04:22:07;;;;;;;6.10;4.13;;;12.50;99.90;;;;;;2038811;29;20235;-72
2023/05/08 04:23:10;;;;;;;4.78;3.65;;;12.50;99.90;;;;;;2048897;28;20176;-70
2023/05/08 04:24:14;;;;;;;4.78;4.03;;;12.40;99.90;;;;;;2050288;28;20187;-69
2023/05/08 04:25:17;;;;;;;4.72;3.83;;;12.50;99.90;;;;;;2055142;28;20183;-70
2023/05/08 04:26:18;;;;;;;3.42;2.83;;;12.50;99.90;;;;;;2045077;28;20260;-70
2023/05/08 04:27:19;;;;;;;3.88;3.47;;;12.50;99.90;;;;;;2046874;28;20239;-69
2023/05/08 04:28:21;;;;;;;4.47;3.25;;;12.50;99.90;;;;;;2050849;28;20234;-70
2023/05/08 04:29:22;;;;;;;3.50;2.95;;;12.50;99.90;;;;;;2038207;28;20227;-70
2023/05/08 04:30:24;;;;;;;3.55;3.22;;;12.50;99.90;;;;;;2048384;28;20239;-70
2023/05/08 04:31:26;;;;;;;4.75;2.97;;;12.50;99.90;;;;;;2046629;28;20288;-69
2023/05/08 04:32:29;;;;;;;3.40;3.03;;;12.40;99.90;;;;;;2051434;28;20313;-70
2023/05/08 04:33:31;;;;;;;3.78;3.15;;;12.30;99.90;;;;;;2045772;28;20224;-70
2023/05/08 04:34:31;;;;;;;3.40;2.95;;;12.40;99.90;;;;;;2055436;28;20226;-70
2023/05/08 04:35:36;;;;;;;4.97;2.83;;;12.40;99.90;;;;;;2055825;28;20689;-70
2023/05/08 04:36:37;;;;;;;3.63;2.72;;;12.40;99.90;;;;;;2047256;28;20595;-70
2023/05/08 04:37:40;;;;;;;3.50;3.10;;;12.50;99.90;;;;;;2034923;29;20674;-69
2023/05/08 04:38:41;;;;;;;3.92;2.90;;;12.50;99.90;;;;;;2032211;29;20309;-69
2023/05/08 04:39:41;;;;;;;3.43;2.93;;;12.50;99.90;;;;;;2039188;29;20224;-68
2023/05/08 04:40:42;;;;;;;2.83;2.60;;;12.40;99.90;;;;;;2047535;28;20219;-69
2023/05/08 04:41:43;;;;;;;3.30;3.00;;;12.60;99.90;;;;;;2047256;28;20627;-71
2023/05/08 04:42:46;;;;;;;4.03;3.00;;;12.60;99.90;;;;;;2027747;29;20735;-69
2023/05/08 04:43:47;;;;;;;3.47;2.92;;;12.60;99.90;;;;;;2046273;28;20243;-68
2023/05/08 04:44:48;;;;;;;3.05;2.67;;;12.60;99.90;;;;;;2055377;28;20219;-69
2023/05/08 04:45:48;;;;;;;3.13;2.83;;;12.60;99.90;;;;;;2048995;28;20251;-68
2023/05/08 04:46:50;;;;;;;3.17;2.87;;;12.60;99.90;;;;;;2039149;29;20220;-68
2023/05/08 04:47:51;;;;;;;3.65;2.70;;;12.70;99.90;;;;;;2047075;28;20298;-69
2023/05/08 04:48:52;;;;;;;4.17;3.03;;;12.70;99.90;;;;;;2055281;28;20215;-68
2023/05/08 04:49:52;;;;;;;3.80;3.43;;;12.80;99.90;;;;;;2047609;28;20226;-69
2023/05/08 04:50:53;;;;;;;4.57;3.03;;;12.80;99.90;;;;;;2047149;28;20232;-69
2023/05/08 04:51:54;;;;;;;4.03;3.47;;;12.80;99.90;;;;;;2060649;28;20234;-69
2023/05/08 04:52:56;;;;;;;5.40;3.20;;;12.70;99.90;;;;;;2063400;28;20356;-69
2023/05/08 04:53:56;;;;;;;3.78;3.38;;;12.70;99.90;;;;;;2056139;28;20313;-69
2023/05/08 04:54:57;;;;;;;5.03;3.53;;;12.80;99.90;;;;;;2055719;28;20218;-68
2023/05/08 04:55:58;;;;;;;3.53;2.80;;;12.80;99.90;;;;;;2056155;28;20238;-69
2023/05/08 04:56:59;;;;;;;5.30;3.17;;;12.80;99.90;;;;;;2055364;28;20231;-70
2023/05/08 04:58:00;;;;;;;3.53;3.22;;;12.70;99.90;;;;;;2055419;28;20278;-69
2023/05/08 04:59:01;;;;;;;5.77;3.20;;;12.70;99.90;;;;;;2055560;28;20186;-69
2023/05/08 05:00:03;;;;;;;3.63;3.28;;;12.60;99.90;;;;;;2055491;28;20190;-69
2023/05/08 05:01:04;;;;;;;3.47;3.17;;;12.60;99.90;;;;;;2047725;28;20199;-69
2023/05/08 05:02:08;;;;;;;4.20;3.80;;;12.40;99.90;;;;;;2055185;28;20636;-69
2023/05/08 05:03:09;;;;;;;3.42;3.10;;;12.70;99.90;;;;;;2056245;28;20238;-68
2023/05/08 05:04:10;;;;;;;3.97;3.58;;;12.80;99.90;;;;;;2054208;28;20187;-68
2023/05/08 05:05:11;;;;;;;4.63;4.13;;;12.80;99.90;;;;;;2045849;28;20191;-68
2023/05/08 05:06:12;;;;;;;4.20;3.70;;;12.80;99.90;;;;;;2048959;28;20183;-68
2023/05/08 05:07:12;;;;;;;4.33;3.87;;;12.80;99.90;;;;;;2055165;28;20688;-68
2023/05/08 05:08:13;;;;;;;4.00;3.60;;;12.90;99.90;;;;;;2054277;28;20672;-68
2023/05/08 05:09:14;;;;;;;4.20;3.60;;;12.90;99.90;;;;;;2063546;28;20187;-68
2023/05/08 05:10:15;;;;;;;4.88;3.42;;;13.00;99.90;;;;;;2056302;28;20330;-68
2023/05/08 05:11:16;;;;;;;4.20;3.77;;;13.00;99.90;;;;;;2056075;28;20186;-69
2023/05/08 05:12:17;;;;;;;4.03;3.53;;;12.50;99.90;;;;;;2055792;28;20436;-68
2023/05/08 05:13:19;;;;;;;4.40;3.60;;;13.00;99.90;;;;;;2054033;28;20211;-69
2023/05/08 05:14:21;;;;;;;3.60;3.17;;;13.00;99.90;;;;;;2045361;28;20244;-69
2023/05/08 05:15:21;;;;;;;4.47;3.42;;;13.00;99.90;;;;;;2047367;28;20236;-69
2023/05/08 05:16:22;;;;;;;5.20;3.67;;;12.90;99.90;;;;;;2047677;28;20327;-69
2023/05/08 05:17:23;;;;;;;4.27;2.97;;;12.90;99.90;;;;;;2049890;28;20239;-69
2023/05/08 05:18:24;;;;;;;4.30;3.80;;;12.80;99.90;;;;;;2054329;28;20242;-69
2023/05/08 05:19:25;;;;;;;4.10;2.77;;;12.80;99.90;;;;;;2054137;28;20235;-69
2023/05/08 05:20:27;;;;;;;3.20;2.90;;;12.70;99.90;;;;;;2055262;28;20230;-69
2023/05/08 05:21:28;;;;;;;3.38;3.00;;;12.30;99.90;;;;;;2046858;28;20227;-69
2023/05/08 05:22:28;;;;;;;2.90;2.60;;;13.00;99.90;;;;;;2054781;28;20333;-69
2023/05/08 05:23:30;;;;;;;3.87;2.67;;;12.60;99.90;;;;;;2055887;28;20234;-69
2023/05/08 05:24:30;;;;;;;3.38;2.65;;;12.70;99.90;;;;;;2055606;28;20246;-69
2023/05/08 05:25:31;;;;;;;3.43;2.50;;;12.70;99.90;;;;;;2056034;28;20245;-69
2023/05/08 05:26:33;;;;;;;3.33;2.50;;;12.80;99.90;;;;;;2055936;28;20662;-69
2023/05/08 05:27:38;;;;;;;4.60;2.70;;;12.90;99.90;;;;;;2055542;28;20242;-69
2023/05/08 05:28:38;;;;;;;3.45;2.83;;;12.80;99.90;;;;;;2047357;28;20227;-69
2023/05/08 05:29:39;;;;;;;2.90;2.70;;;12.70;99.90;;;;;;2047495;28;20298;-69
2023/05/08 05:30:40;;;;;;;2.97;2.47;;;12.60;99.90;;;;;;2056057;28;20674;-69
2023/05/08 05:31:41;;;;;;;3.63;3.03;;;12.70;99.90;;;;;;2055738;28;20294;-69
2023/05/08 05:32:42;;;;;;;2.67;2.47;;;12.70;99.90;;;;;;2055911;28;20226;-69
2023/05/08 05:33:43;;;;;;;3.33;3.03;;;12.80;99.90;;;;;;2055728;28;20214;-69
2023/05/08 05:34:43;;;;;;;4.13;2.80;;;12.80;99.90;;;;;;2056161;28;20277;-70
2023/05/08 05:35:44;;;;;;;3.40;2.23;;;12.90;99.90;;;;;;2049019;28;20219;-69
2023/05/08 05:36:45;;;;;;;2.90;2.30;;;13.10;99.90;;;;;;2046701;29;20228;-69
2023/05/08 05:37:47;;;;;;;3.00;2.70;;;13.20;99.90;;;;;;2053474;28;20297;-69
2023/05/08 05:38:47;;;;;;;5.88;3.17;;;13.20;99.90;;;;;;2040857;29;20216;-69
2023/05/08 05:39:48;;;;;;;4.93;2.83;;;13.20;99.90;;;;;;2045727;28;20233;-69
2023/05/08 05:40:49;;;;;;;2.83;2.60;;;13.20;99.90;;;;;;2047907;28;20215;-69
2023/05/08 05:41:50;;;;;;;3.63;2.77;;;13.30;99.90;;;;;;2046210;28;20318;-69
2023/05/08 05:42:51;;;;;;;3.00;2.73;;;13.20;99.90;;;;;;2054875;28;20356;-69
2023/05/08 05:43:51;;;;;;;3.50;2.72;;;13.30;99.90;;;;;;2054917;28;20233;-69